Time;durP1;ratioP1;P1;durP2;ratioP2;P2;SDS_P1;SDS_P2;PMS_P1;PMS_P2;Temp;Humidity;BMP_temperature;BMP_pressure;BME280_temperature;BME280_humidity;BME280_pressure;Samples;Min_cycle;Max_cycle;Signal;HPM_P1;HPM_P2
2023/08/03 00:00:34;;;;;;;14.65;2.55;;;;;;;-144.73;100.00;54690.97;4944029;28;20073;-71
2023/08/03 00:02:59;;;;;;;9.93;2.28;;;;;;;-144.73;100.00;54649.91;4964935;28;20054;-71
2023/08/03 00:05:25;;;;;;;14.80;2.17;;;;;;;-144.73;100.00;54662.22;4952806;28;20019;-71
2023/08/03 00:07:51;;;;;;;16.75;2.20;;;;;;;-144.73;100.00;54654.00;4950926;28;20038;-71
2023/08/03 00:10:17;;;;;;;8.50;1.85;;;;;;;-144.73;100.00;54617.06;4964096;28;20089;-70
2023/08/03 00:12:44;;;;;;;6.53;2.15;;;;;;;-144.73;100.00;54658.13;5016261;28;20066;-70
2023/08/03 00:15:11;;;;;;;8.13;1.75;;;;;;;-144.73;100.00;54645.78;4946707;28;20442;-70
2023/08/03 00:17:37;;;;;;;12.77;2.38;;;;;;;-144.73;100.00;54670.44;5013722;28;20496;-70
2023/08/03 00:20:04;;;;;;;6.47;2.08;;;;;;;-144.73;100.00;54629.38;4964285;28;20095;-70
2023/08/03 00:22:30;;;;;;;9.48;2.17;;;;;;;-144.73;100.00;54633.47;4974889;28;20057;-70
2023/08/03 00:24:56;;;;;;;7.50;2.42;;;;;;;-144.73;100.00;54600.63;4975131;28;20020;-70
2023/08/03 00:27:21;;;;;;;10.00;2.08;;;;;;;-144.73;100.00;54645.78;4961969;28;20490;-70
2023/08/03 00:29:46;;;;;;;16.60;2.55;;;;;;;-144.73;100.00;54695.06;4934615;28;20031;-70
2023/08/03 00:32:12;;;;;;;7.43;1.88;;;;;;;-144.73;100.00;54645.78;4997109;28;20025;-70
2023/08/03 00:34:37;;;;;;;13.95;2.20;;;;;;;-144.73;100.00;54623.22;4992252;28;20074;-70
2023/08/03 00:37:03;;;;;;;8.65;2.00;;;;;;;-144.73;100.00;54608.84;5032409;28;20112;-70
2023/08/03 00:39:28;;;;;;;9.88;2.05;;;;;;;-144.73;100.00;54658.13;4963228;28;20023;-70
2023/08/03 00:41:54;;;;;;;14.32;2.25;;;;;;;-144.73;100.00;54654.00;4967580;28;20118;-70
2023/08/03 00:44:19;;;;;;;7.38;2.08;;;;;;;-144.73;100.00;54629.38;4952992;28;20027;-70
2023/08/03 00:46:46;;;;;;;8.00;2.25;;;;;;;-144.73;100.00;54662.22;4933090;28;20047;-70
2023/08/03 00:49:11;;;;;;;11.35;2.05;;;;;;;-144.73;100.00;54629.38;4967557;28;20546;-70
2023/08/03 00:51:37;;;;;;;15.55;2.78;;;;;;;-144.73;100.00;54654.00;4999867;28;20077;-71
2023/08/03 00:54:06;;;;;;;12.57;3.30;;;;;;;-144.73;100.00;54617.06;4989805;28;20023;-71
2023/08/03 00:56:35;;;;;;;11.45;3.30;;;;;;;-144.73;100.00;54649.91;4932621;28;20110;-71
2023/08/03 00:59:02;;;;;;;13.18;3.40;;;;;;;-144.73;100.00;54670.44;4974841;28;20090;-72
2023/08/03 01:01:27;;;;;;;10.48;3.20;;;;;;;-144.73;100.00;54633.47;4982495;28;20055;-72
2023/08/03 01:03:54;;;;;;;21.17;3.03;;;;;;;-144.73;100.00;54674.53;4960991;28;20065;-72
2023/08/03 01:06:20;;;;;;;7.05;3.03;;;;;;;-144.73;100.00;54674.53;5002791;28;20028;-72
2023/08/03 01:08:45;;;;;;;7.35;2.78;;;;;;;-144.73;100.00;54637.59;5036784;28;20027;-73
2023/08/03 01:11:11;;;;;;;11.18;3.25;;;;;;;-144.73;100.00;54654.00;4946230;28;20505;-72
2023/08/03 01:13:36;;;;;;;7.00;2.78;;;;;;;-144.73;100.00;54641.69;4988464;28;20077;-72
2023/08/03 01:16:02;;;;;;;6.35;3.13;;;;;;;-144.73;100.00;54680.69;4973780;28;20047;-72
2023/08/03 01:18:28;;;;;;;11.73;3.10;;;;;;;-144.73;100.00;54625.28;4960277;28;20031;-72
2023/08/03 01:20:53;;;;;;;16.08;3.95;;;;;;;-144.73;100.00;54629.38;4946519;28;20027;-72
2023/08/03 01:23:19;;;;;;;10.63;2.83;;;;;;;-144.73;100.00;54672.47;4933844;28;20054;-72
2023/08/03 01:25:44;;;;;;;12.50;2.90;;;;;;;-144.73;100.00;54649.91;4959333;28;20025;-72
2023/08/03 01:28:09;;;;;;;16.65;3.20;;;;;;;-144.73;100.00;54629.38;4988710;28;20093;-73
2023/08/03 01:30:34;;;;;;;11.70;3.22;;;;;;;-144.73;100.00;54670.44;4979948;28;20390;-73
2023/08/03 01:33:00;;;;;;;12.38;3.58;;;;;;;-144.73;100.00;54654.00;4988020;28;20035;-73
2023/08/03 01:35:26;;;;;;;9.60;3.20;;;;;;;-144.73;100.00;54633.47;4933220;28;20034;-73
2023/08/03 01:37:51;;;;;;;9.90;3.50;;;;;;;-144.73;100.00;54658.13;4946458;28;20047;-73
2023/08/03 01:40:17;;;;;;;14.48;3.53;;;;;;;-144.73;100.00;54658.13;5008671;28;20056;-74
2023/08/03 01:42:43;;;;;;;7.63;2.88;;;;;;;-144.73;100.00;54637.59;4976329;28;20092;-74
2023/08/03 01:45:09;;;;;;;10.25;3.85;;;;;;;-144.73;100.00;54674.53;4956864;28;20042;-73
2023/08/03 01:47:35;;;;;;;7.53;3.08;;;;;;;-144.73;100.00;54612.97;4998759;28;20044;-73
2023/08/03 01:50:00;;;;;;;14.20;3.67;;;;;;;-144.73;100.00;54711.47;5039139;28;20028;-73
2023/08/03 01:52:25;;;;;;;17.70;5.05;;;;;;;-144.73;100.00;54658.13;4975620;28;20027;-73
2023/08/03 01:54:51;;;;;;;11.93;3.05;;;;;;;-144.73;100.00;54658.13;4986266;28;20075;-73
2023/08/03 01:57:17;;;;;;;13.27;3.97;;;;;;;-144.73;100.00;54641.69;4995272;28;20036;-73
2023/08/03 01:59:43;;;;;;;17.63;4.72;;;;;;;-144.73;100.00;54649.91;5003327;28;20065;-73
2023/08/03 02:02:09;;;;;;;17.90;3.63;;;;;;;-144.73;100.00;54660.16;4991520;28;20052;-73
2023/08/03 02:04:34;;;;;;;10.05;3.75;;;;;;;-144.73;100.00;54658.13;4956393;28;20051;-72
2023/08/03 02:07:09;;;;;;;13.20;4.32;;;;;;;-144.73;100.00;54637.59;5031760;28;20039;-71
2023/08/03 02:09:34;;;;;;;13.00;3.75;;;;;;;-144.73;100.00;54678.63;4958870;28;20100;-72
2023/08/03 02:11:59;;;;;;;9.00;4.30;;;;;;;-144.73;100.00;54629.38;4964279;28;20119;-73
2023/08/03 02:14:24;;;;;;;17.90;4.47;;;;;;;-144.73;100.00;54633.47;4933116;28;20110;-72
2023/08/03 02:16:50;;;;;;;23.90;4.22;;;;;;;-144.73;100.00;54670.44;4958808;28;20039;-72
2023/08/03 02:19:15;;;;;;;17.00;4.07;;;;;;;-144.73;100.00;54654.00;4950114;28;20055;-72
2023/08/03 02:21:40;;;;;;;7.40;3.08;;;;;;;-144.73;100.00;54695.06;4941413;28;20031;-72
2023/08/03 02:24:06;;;;;;;15.10;3.47;;;;;;;-144.73;100.00;54676.59;4950146;29;20028;-72
2023/08/03 02:26:31;;;;;;;17.08;3.92;;;;;;;-144.73;100.00;54637.59;4949249;28;20122;-72
2023/08/03 02:28:56;;;;;;;6.75;3.45;;;;;;;-144.73;100.00;54703.28;4958004;28;20035;-72
2023/08/03 02:31:22;;;;;;;7.63;2.88;;;;;;;-144.73;100.00;54674.53;5023335;28;20032;-72
2023/08/03 02:33:47;;;;;;;16.35;5.07;;;;;;;-144.73;100.00;54674.53;5006375;28;20028;-72
2023/08/03 02:36:12;;;;;;;13.02;3.05;;;;;;;-144.73;100.00;54662.22;5006381;28;20048;-72
2023/08/03 02:38:38;;;;;;;15.85;3.58;;;;;;;-144.73;100.00;54670.44;4983694;28;20025;-72
2023/08/03 02:41:03;;;;;;;11.45;3.78;;;;;;;-144.73;100.00;54678.63;5013268;28;20031;-73
2023/08/03 02:43:28;;;;;;;12.75;3.50;;;;;;;-144.73;100.00;54608.84;5002084;28;20031;-71
2023/08/03 02:45:54;;;;;;;14.52;3.38;;;;;;;-144.73;100.00;54686.84;4956627;28;20118;-72
2023/08/03 02:48:19;;;;;;;9.05;3.65;;;;;;;-144.73;100.00;54682.75;4963392;28;20397;-72
2023/08/03 02:50:45;;;;;;;10.77;2.80;;;;;;;-144.73;100.00;54662.22;4949237;28;20035;-72
2023/08/03 02:53:10;;;;;;;12.98;4.25;;;;;;;-144.73;100.00;54670.44;5032901;28;20272;-71
2023/08/03 02:55:35;;;;;;;14.23;3.63;;;;;;;-144.73;100.00;54690.97;4938401;28;20031;-71
2023/08/03 02:58:01;;;;;;;13.90;3.72;;;;;;;-144.73;100.00;54629.38;4930998;28;20066;-71
2023/08/03 03:00:26;;;;;;;12.10;3.95;;;;;;;-144.73;100.00;54682.75;4967404;28;20035;-72
2023/08/03 03:02:51;;;;;;;7.15;2.95;;;;;;;-144.73;100.00;54645.78;4928554;28;20031;-71
2023/08/03 03:05:17;;;;;;;13.68;3.85;;;;;;;-144.73;100.00;54643.75;4936286;28;20034;-71
2023/08/03 03:07:42;;;;;;;16.30;3.60;;;;;;;-144.73;100.00;54686.84;4952338;28;21062;-71
2023/08/03 03:10:08;;;;;;;13.38;3.50;;;;;;;-144.73;100.00;54635.53;4952654;28;20038;-71
2023/08/03 03:12:33;;;;;;;14.30;3.05;;;;;;;-144.73;100.00;54637.59;4972149;28;20025;-71
2023/08/03 03:14:58;;;;;;;12.10;3.03;;;;;;;-144.73;100.00;54715.59;4972907;28;20023;-71
2023/08/03 03:17:24;;;;;;;10.35;3.58;;;;;;;-144.73;100.00;54682.75;4949722;28;20033;-77
2023/08/03 03:19:49;;;;;;;19.42;3.17;;;;;;;-144.73;100.00;54670.44;4951237;28;20035;-76
2023/08/03 03:22:14;;;;;;;8.85;3.88;;;;;;;-144.73;100.00;54645.78;4958118;28;20031;-75
2023/08/03 03:24:40;;;;;;;19.85;4.22;;;;;;;-144.73;100.00;54654.00;4954478;28;20118;-75
2023/08/03 03:27:05;;;;;;;6.10;3.13;;;;;;;-144.73;100.00;54670.44;4977474;28;20040;-75
2023/08/03 03:29:31;;;;;;;8.80;3.17;;;;;;;-144.73;100.00;54654.00;4999412;28;20122;-76
2023/08/03 03:31:56;;;;;;;17.08;4.03;;;;;;;-144.73;100.00;54651.97;4988193;28;20039;-75
2023/08/03 03:34:21;;;;;;;7.55;3.00;;;;;;;-144.73;100.00;54658.13;5026076;28;20029;-76
2023/08/03 03:36:47;;;;;;;10.23;2.97;;;;;;;-144.73;100.00;54670.44;4989562;28;20050;-76
2023/08/03 03:39:12;;;;;;;10.10;2.78;;;;;;;-144.73;100.00;54678.63;4969678;28;20027;-75
2023/08/03 03:41:37;;;;;;;12.25;3.83;;;;;;;-144.73;100.00;54662.22;4957671;28;20023;-75
2023/08/03 03:44:03;;;;;;;22.02;3.85;;;;;;;-144.73;100.00;54654.00;4948990;28;20039;-76
2023/08/03 03:46:28;;;;;;;16.13;3.25;;;;;;;-144.73;100.00;54633.47;4950787;28;20035;-76
2023/08/03 03:48:53;;;;;;;15.00;4.30;;;;;;;-144.73;100.00;54690.97;4945886;28;20027;-77
2023/08/03 03:51:21;;;;;;;11.48;3.13;;;;;;;-144.73;100.00;54654.00;4934139;28;20085;-76
2023/08/03 03:53:46;;;;;;;13.10;2.67;;;;;;;-144.73;100.00;54649.91;4951733;28;20031;-77
2023/08/03 03:56:12;;;;;;;17.58;3.05;;;;;;;-144.73;100.00;54670.44;4951389;28;20050;-76
2023/08/03 03:58:37;;;;;;;10.82;2.88;;;;;;;-144.73;100.00;54662.22;4948451;28;20110;-76
2023/08/03 04:01:02;;;;;;;16.13;3.42;;;;;;;-144.73;100.00;54645.78;4938329;28;20122;-76
2023/08/03 04:03:28;;;;;;;17.85;3.58;;;;;;;-144.73;100.00;54654.00;4958247;28;20043;-76
2023/08/03 04:05:53;;;;;;;13.35;2.90;;;;;;;-144.73;100.00;54678.63;4950524;28;20036;-76
2023/08/03 04:08:19;;;;;;;9.80;2.90;;;;;;;-144.73;100.00;54656.06;4967220;28;20025;-77
2023/08/03 04:10:44;;;;;;;24.35;3.85;;;;;;;-144.73;100.00;54617.06;4988888;28;20021;-76
2023/08/03 04:13:10;;;;;;;14.15;3.65;;;;;;;-144.73;100.00;54695.06;4972393;28;20029;-77
2023/08/03 04:15:35;;;;;;;7.60;2.60;;;;;;;-144.73;100.00;54703.28;4942205;28;20046;-76
2023/08/03 04:18:01;;;;;;;11.15;3.17;;;;;;;-144.73;100.00;54654.00;4962829;28;20276;-76
2023/08/03 04:20:26;;;;;;;17.00;3.08;;;;;;;-144.73;100.00;54654.00;4969301;28;20035;-76
2023/08/03 04:22:52;;;;;;;11.18;2.85;;;;;;;-144.73;100.00;54637.59;4931230;28;20114;-76
2023/08/03 04:25:17;;;;;;;12.82;4.03;;;;;;;-144.73;100.00;54629.38;4934804;28;20137;-75
2023/08/03 04:27:42;;;;;;;12.93;3.03;;;;;;;-144.73;100.00;54662.22;4930079;28;20039;-75
2023/08/03 04:30:10;;;;;;;12.75;2.78;;;;;;;-144.73;100.00;54678.63;4978086;28;20027;-74
2023/08/03 04:32:35;;;;;;;11.35;2.85;;;;;;;-144.73;100.00;54707.38;5000064;28;20038;-74
2023/08/03 04:35:00;;;;;;;13.13;2.72;;;;;;;-144.73;100.00;54686.84;4988498;28;20077;-74
2023/08/03 04:37:26;;;;;;;23.77;2.95;;;;;;;-144.73;100.00;54658.13;4955496;28;20038;-74
2023/08/03 04:39:51;;;;;;;14.88;3.00;;;;;;;-144.73;100.00;54693.00;4934372;28;20401;-74
2023/08/03 04:42:17;;;;;;;9.75;3.33;;;;;;;-144.73;100.00;54715.59;4974515;28;20115;-74
2023/08/03 04:44:42;;;;;;;17.15;3.95;;;;;;;-144.73;100.00;54658.13;4933803;28;20079;-74
2023/08/03 04:47:08;;;;;;;13.05;2.85;;;;;;;-144.73;100.00;54688.91;4956059;28;20029;-74
2023/08/03 04:49:34;;;;;;;15.50;3.33;;;;;;;-144.73;100.00;54654.00;4940878;28;20024;-74
2023/08/03 04:51:59;;;;;;;17.98;2.35;;;;;;;-144.73;100.00;54658.13;4967326;28;20096;-74
2023/08/03 04:54:24;;;;;;;12.30;3.00;;;;;;;-144.73;100.00;54682.75;4951910;28;20016;-75
2023/08/03 04:56:50;;;;;;;19.25;3.03;;;;;;;-144.73;100.00;54645.78;5032145;28;20041;-74
2023/08/03 04:59:15;;;;;;;13.85;4.70;;;;;;;-144.73;100.00;54674.53;4983083;28;20077;-74
2023/08/03 05:01:41;;;;;;;20.98;4.22;;;;;;;-144.73;100.00;54703.28;4979046;28;20093;-75
2023/08/03 05:04:06;;;;;;;14.48;3.60;;;;;;;-144.73;100.00;54658.13;4937060;28;20022;-74
2023/08/03 05:06:31;;;;;;;17.67;3.53;;;;;;;-144.73;100.00;54654.00;4950195;28;20097;-74
2023/08/03 05:08:57;;;;;;;12.02;2.70;;;;;;;-144.73;100.00;54670.44;4969211;28;20023;-74
2023/08/03 05:11:22;;;;;;;13.32;2.67;;;;;;;-144.73;100.00;54641.69;4933409;28;20031;-73
2023/08/03 05:13:47;;;;;;;11.02;2.80;;;;;;;-144.73;100.00;54686.84;4950955;28;20102;-73
2023/08/03 05:16:13;;;;;;;7.55;2.85;;;;;;;-144.73;100.00;54637.59;4932833;28;20035;-73
2023/08/03 05:18:38;;;;;;;10.25;3.30;;;;;;;-144.73;100.00;54695.06;4950162;28;20030;-73
2023/08/03 05:21:03;;;;;;;10.85;2.60;;;;;;;-144.73;100.00;54637.59;4989899;28;20054;-74
2023/08/03 05:23:29;;;;;;;14.25;2.95;;;;;;;-144.73;100.00;54670.44;4974562;28;20017;-74
2023/08/03 05:25:55;;;;;;;10.00;2.90;;;;;;;-144.73;100.00;54649.91;4973615;28;20031;-74
2023/08/03 05:28:21;;;;;;;16.35;2.95;;;;;;;-144.73;100.00;54674.53;4933197;28;20031;-73
2023/08/03 05:30:47;;;;;;;13.95;2.38;;;;;;;-144.73;100.00;54621.16;5004810;28;20020;-74
2023/08/03 05:33:12;;;;;;;9.60;2.85;;;;;;;-144.73;100.00;54658.13;4991590;28;20024;-74
2023/08/03 05:35:38;;;;;;;9.48;2.88;;;;;;;-144.73;100.00;54686.84;5021829;28;20028;-74
2023/08/03 05:38:03;;;;;;;6.28;2.90;;;;;;;-144.73;100.00;54674.53;5004401;28;20468;-74
2023/08/03 05:40:28;;;;;;;8.05;2.30;;;;;;;-144.73;100.00;54633.47;4949760;28;20031;-74
2023/08/03 05:42:54;;;;;;;8.65;3.40;;;;;;;-144.73;100.00;54678.63;4947057;28;20130;-74
2023/08/03 05:45:39;;;;;;;13.00;2.72;;;;;;;-144.73;100.00;54654.00;4947568;28;20101;-74
2023/08/03 05:48:13;;;;;;;12.45;2.38;;;;;;;-144.73;100.00;54658.13;4929610;28;20062;-74
2023/08/03 05:50:41;;;;;;;10.18;2.70;;;;;;;-144.73;100.00;54633.47;4932844;28;20034;-73
2023/08/03 05:53:09;;;;;;;9.55;2.10;;;;;;;-144.73;100.00;54645.78;4954694;28;20047;-74
2023/08/03 05:55:35;;;;;;;7.95;3.03;;;;;;;-144.73;100.00;54674.53;4933348;28;20023;-73
2023/08/03 05:58:01;;;;;;;8.07;2.78;;;;;;;-144.73;100.00;54656.06;4932684;28;20011;-74
2023/08/03 06:00:28;;;;;;;5.05;2.25;;;;;;;-144.73;100.00;54682.75;4946058;28;20015;-73
2023/08/03 06:02:56;;;;;;;9.43;2.78;;;;;;;-144.73;100.00;54682.75;4953469;28;20033;-73
2023/08/03 06:05:39;;;;;;;16.10;3.15;;;;;;;-144.73;100.00;54670.44;4937750;28;20054;-74
2023/08/03 06:08:17;;;;;;;8.57;2.60;;;;;;;-144.73;100.00;54686.84;5018764;28;20037;-75
2023/08/03 06:10:47;;;;;;;12.52;3.78;;;;;;;-144.73;100.00;54727.91;4944753;28;20046;-74
2023/08/03 06:13:15;;;;;;;11.50;2.70;;;;;;;-144.73;100.00;54670.44;4962743;28;20097;-74
2023/08/03 06:15:41;;;;;;;8.68;2.75;;;;;;;-144.73;100.00;54645.78;4978927;28;20398;-74
2023/08/03 06:18:15;;;;;;;7.63;2.90;;;;;;;-144.73;100.00;54674.53;4962705;28;20027;-74
2023/08/03 06:20:44;;;;;;;11.68;3.30;;;;;;;-144.73;100.00;54658.13;4956203;28;20029;-73
2023/08/03 06:23:22;;;;;;;9.15;3.05;;;;;;;-144.73;100.00;54670.44;4961425;28;20031;-74
2023/08/03 06:25:52;;;;;;;9.43;2.88;;;;;;;-144.73;100.00;54670.44;4989434;28;20028;-73
2023/08/03 06:28:19;;;;;;;10.98;2.78;;;;;;;-144.73;100.00;54670.44;5001420;28;20059;-74
2023/08/03 06:30:46;;;;;;;5.43;2.30;;;;;;;-144.73;100.00;54682.75;4932148;28;20060;-73
2023/08/03 06:33:14;;;;;;;9.48;2.72;;;;;;;-144.73;100.00;54625.28;4934743;28;20093;-74
2023/08/03 06:35:42;;;;;;;5.32;2.78;;;;;;;-144.73;100.00;54662.22;4939382;28;20024;-74
2023/08/03 06:38:10;;;;;;;8.00;2.45;;;;;;;-144.73;100.00;54674.53;4969570;28;20017;-74
2023/08/03 06:40:37;;;;;;;7.60;2.50;;;;;;;-144.73;100.00;54641.69;4973058;28;20021;-74
2023/08/03 06:43:03;;;;;;;10.98;2.33;;;;;;;-144.73;100.00;54703.28;4969424;28;20025;-74
2023/08/03 06:45:32;;;;;;;10.93;2.90;;;;;;;-144.73;100.00;54670.44;4968618;28;20112;-74
2023/08/03 06:47:59;;;;;;;5.65;2.55;;;;;;;-144.73;100.00;54682.75;5030634;28;20138;-74
2023/08/03 06:50:25;;;;;;;9.68;2.78;;;;;;;-144.73;100.00;54662.22;5000578;28;20037;-75
2023/08/03 06:52:51;;;;;;;9.45;2.53;;;;;;;-144.73;100.00;54649.91;4962635;28;20027;-75
2023/08/03 06:55:17;;;;;;;5.30;2.65;;;;;;;-144.73;100.00;54678.63;4936678;28;20027;-75
2023/08/03 06:57:43;;;;;;;6.90;2.80;;;;;;;-144.73;100.00;54690.97;5009275;28;20585;-76
2023/08/03 07:00:09;;;;;;;7.82;2.33;;;;;;;-144.73;100.00;54658.13;4972136;28;20052;-75
2023/08/03 07:02:34;;;;;;;4.45;1.85;;;;;;;-144.73;100.00;54649.91;4941348;28;20070;-75
2023/08/03 07:05:00;;;;;;;7.53;1.90;;;;;;;-144.73;100.00;54662.22;4981453;28;20449;-76
2023/08/03 07:07:25;;;;;;;2.55;1.88;;;;;;;-144.73;100.00;54670.44;4973124;28;20500;-75
2023/08/03 07:09:51;;;;;;;3.20;1.92;;;;;;;-144.73;100.00;54682.75;4963561;28;20494;-75
2023/08/03 07:12:16;;;;;;;2.80;1.80;;;;;;;-144.73;100.00;54690.97;5008933;28;20030;-75
2023/08/03 07:14:42;;;;;;;4.43;1.70;;;;;;;-144.73;100.00;54693.00;4977852;28;20113;-75
2023/08/03 07:17:07;;;;;;;5.55;1.98;;;;;;;-144.73;100.00;54672.47;4939968;28;20054;-75
2023/08/03 07:19:33;;;;;;;5.55;1.25;;;;;;;-144.73;100.00;54662.22;4969371;28;20031;-75
2023/08/03 07:21:58;;;;;;;2.33;1.30;;;;;;;-144.73;100.00;54684.78;4940181;28;20059;-77
2023/08/03 07:24:24;;;;;;;3.28;1.20;;;;;;;-144.73;100.00;54695.06;4988554;28;20025;-76
2023/08/03 07:26:50;;;;;;;1.75;1.00;;;;;;;-144.73;100.00;54658.13;4964382;28;20093;-74
2023/08/03 07:29:16;;;;;;;2.60;1.17;;;;;;;-144.73;100.00;54674.53;4973537;28;20074;-74
2023/08/03 07:31:41;;;;;;;5.10;1.40;;;;;;;-144.73;100.00;54629.38;4936535;28;20039;-74
2023/08/03 07:34:06;;;;;;;3.22;0.85;;;;;;;-144.73;100.00;54705.31;5002319;28;20025;-75
2023/08/03 07:36:32;;;;;;;4.45;1.55;;;;;;;-144.73;100.00;54651.97;5021241;28;20040;-75
2023/08/03 07:38:57;;;;;;;2.92;1.55;;;;;;;-144.73;100.00;54688.91;5013305;28;20030;-74
2023/08/03 07:41:23;;;;;;;2.30;1.25;;;;;;;-144.73;100.00;54670.44;4931646;28;20035;-74
2023/08/03 07:43:49;;;;;;;1.63;1.52;;;;;;;-144.73;100.00;54699.16;4932046;28;20031;-75
2023/08/03 07:46:15;;;;;;;3.30;1.75;;;;;;;-144.73;100.00;54670.44;4937873;28;20056;-74
2023/08/03 07:48:40;;;;;;;2.97;1.98;;;;;;;-144.73;100.00;54649.91;4942566;28;20015;-73
2023/08/03 07:51:14;;;;;;;3.72;2.42;;;;;;;-144.73;100.00;54645.78;4989550;28;20034;-73
2023/08/03 07:53:39;;;;;;;2.97;2.05;;;;;;;-144.73;100.00;54686.84;4981957;28;20123;-73
2023/08/03 07:56:19;;;;;;;4.13;2.50;;;;;;;-144.73;100.00;54645.78;4961143;28;20098;-73
2023/08/03 07:58:46;;;;;;;3.50;1.70;;;;;;;-144.73;100.00;54641.69;4931035;28;20047;-73
2023/08/03 08:01:12;;;;;;;2.47;1.50;;;;;;;-144.73;100.00;54654.00;4938132;28;20478;-73
2023/08/03 08:03:38;;;;;;;2.42;1.80;;;;;;;-144.73;100.00;54662.22;4937482;28;20027;-73
2023/08/03 08:06:09;;;;;;;4.18;2.22;;;;;;;-144.73;100.00;54654.00;4923309;28;20035;-74
2023/08/03 08:08:35;;;;;;;2.50;1.60;;;;;;;-144.73;100.00;54670.44;4955799;28;20054;-73
2023/08/03 08:11:00;;;;;;;1.75;1.30;;;;;;;-144.73;100.00;54670.44;4988855;28;20025;-74
2023/08/03 08:13:26;;;;;;;2.28;1.90;;;;;;;-144.73;100.00;54654.00;4982927;28;20099;-74
2023/08/03 08:15:56;;;;;;;4.53;1.83;;;;;;;-144.73;100.00;54670.44;4947733;28;20034;-74
2023/08/03 08:18:21;;;;;;;2.63;1.65;;;;;;;-144.73;100.00;54686.84;4986918;28;20054;-74
2023/08/03 08:20:57;;;;;;;6.00;1.98;;;;;;;-144.73;100.00;54649.91;4933731;28;20023;-75
2023/08/03 08:23:22;;;;;;;3.58;1.95;;;;;;;-144.73;100.00;54699.16;4934731;28;20521;-75
2023/08/03 08:25:47;;;;;;;5.93;2.20;;;;;;;-144.73;100.00;54670.44;4930455;28;20019;-75
2023/08/03 08:28:13;;;;;;;5.57;2.17;;;;;;;-144.73;100.00;54674.53;4934129;28;20024;-75
2023/08/03 08:30:38;;;;;;;4.45;2.38;;;;;;;-144.73;100.00;54647.84;4947316;28;21033;-75
2023/08/03 08:33:04;;;;;;;5.72;2.60;;;;;;;-144.73;100.00;54633.47;4998102;28;20087;-74
2023/08/03 08:35:29;;;;;;;3.85;2.38;;;;;;;-144.73;100.00;54658.13;4975235;28;20045;-75
2023/08/03 08:37:55;;;;;;;6.22;2.70;;;;;;;-144.73;100.00;54674.53;5014291;28;20048;-75
2023/08/03 08:40:20;;;;;;;2.63;2.17;;;;;;;-144.73;100.00;54625.28;4961939;28;20050;-75
2023/08/03 08:42:52;;;;;;;4.88;2.53;;;;;;;-144.73;100.00;54707.38;5015064;28;20155;-75
2023/08/03 08:45:19;;;;;;;3.17;2.30;;;;;;;-144.73;100.00;54662.22;5005220;28;20039;-75
2023/08/03 08:47:45;;;;;;;10.88;2.30;;;;;;;-144.73;100.00;54670.44;4985654;28;20473;-75
2023/08/03 08:50:11;;;;;;;4.95;2.10;;;;;;;-144.73;100.00;54662.22;5005195;28;20092;-76
2023/08/03 08:52:39;;;;;;;2.83;2.22;;;;;;;-144.73;100.00;54637.59;4989510;28;20103;-75
2023/08/03 08:55:16;;;;;;;3.03;2.00;;;;;;;-144.73;100.00;54697.13;5018052;28;20067;-76
2023/08/03 08:57:43;;;;;;;3.15;1.50;;;;;;;-144.73;100.00;54645.78;4960390;28;20039;-76
2023/08/03 09:00:09;;;;;;;6.30;1.90;;;;;;;-144.73;100.00;54674.53;4933148;28;20019;-75
2023/08/03 09:02:35;;;;;;;3.20;2.00;;;;;;;-144.73;100.00;54674.53;4933174;28;20043;-74
2023/08/03 09:05:19;;;;;;;3.30;2.28;;;;;;;-144.73;100.00;54682.75;4932305;28;20035;-74
2023/08/03 09:07:45;;;;;;;2.55;2.00;;;;;;;-144.73;100.00;54699.16;4944989;28;20046;-74
2023/08/03 09:10:11;;;;;;;2.83;1.83;;;;;;;-144.73;100.00;54658.13;4931438;28;20085;-73
2023/08/03 09:12:42;;;;;;;4.57;1.85;;;;;;;-144.73;100.00;54682.75;4928655;28;20110;-72
2023/08/03 09:15:08;;;;;;;2.85;2.28;;;;;;;-144.73;100.00;54654.00;5030287;28;20023;-72
2023/08/03 09:17:33;;;;;;;4.35;2.38;;;;;;;-144.73;100.00;54682.75;4951285;28;20039;-74
2023/08/03 09:19:59;;;;;;;3.88;2.25;;;;;;;-144.73;100.00;54649.91;4983039;28;20053;-74
2023/08/03 09:22:26;;;;;;;11.57;3.28;;;;;;;-144.73;100.00;54670.44;5029080;28;20035;-74
2023/08/03 09:25:04;;;;;;;6.82;3.00;;;;;;;-144.73;100.00;54695.06;5028291;28;20026;-74
2023/08/03 09:27:29;;;;;;;10.13;3.85;;;;;;;-144.73;100.00;54604.75;4928769;28;20031;-75
2023/08/03 09:29:59;;;;;;;7.95;4.15;;;;;;;-144.73;100.00;54654.00;4951564;28;20066;-76
2023/08/03 09:32:31;;;;;;;9.27;2.97;;;;;;;-144.73;100.00;54637.59;4973085;28;20463;-76
2023/08/03 09:34:57;;;;;;;12.10;4.05;;;;;;;-144.73;100.00;54649.91;4946120;28;20020;-77
2023/08/03 09:37:35;;;;;;;14.52;4.30;;;;;;;-144.73;100.00;54662.22;4930960;28;20027;-75
2023/08/03 09:40:04;;;;;;;10.75;4.18;;;;;;;-144.73;100.00;54682.75;4974725;28;20049;-75
2023/08/03 09:42:31;;;;;;;9.85;3.72;;;;;;;-144.73;100.00;54654.00;4944331;28;20042;-74
2023/08/03 09:45:01;;;;;;;6.40;3.33;;;;;;;-144.73;100.00;54629.38;4937862;28;20027;-74
2023/08/03 09:47:26;;;;;;;5.50;2.85;;;;;;;-144.73;100.00;54651.97;4937416;28;20032;-73
2023/08/03 09:49:52;;;;;;;6.47;2.42;;;;;;;-144.73;100.00;54629.38;4930754;28;20020;-73
2023/08/03 09:52:24;;;;;;;6.18;2.28;;;;;;;-144.73;100.00;54654.00;4929575;28;20027;-73
2023/08/03 09:55:07;;;;;;;5.22;2.60;;;;;;;-144.73;100.00;54637.59;4953432;28;20019;-74
2023/08/03 09:57:47;;;;;;;7.55;1.98;;;;;;;-144.73;100.00;54699.16;4928621;28;20032;-73
2023/08/03 10:00:14;;;;;;;2.35;1.85;;;;;;;-144.73;100.00;54686.84;4929207;28;20019;-75
2023/08/03 10:02:43;;;;;;;4.53;1.52;;;;;;;-144.73;100.00;54674.53;4946768;28;20587;-73
2023/08/03 10:05:13;;;;;;;3.33;1.70;;;;;;;-144.73;100.00;54662.22;4939360;28;20442;-73
2023/08/03 10:07:49;;;;;;;1.55;1.00;;;;;;;-144.73;100.00;54645.78;4946879;28;20028;-73
2023/08/03 10:10:16;;;;;;;3.78;1.60;;;;;;;-144.73;100.00;54637.59;4983946;28;20027;-73
2023/08/03 10:12:46;;;;;;;2.95;1.00;;;;;;;-144.73;100.00;54645.78;4974295;28;20033;-73
2023/08/03 10:15:14;;;;;;;3.78;1.48;;;;;;;-144.73;100.00;54654.00;4939200;28;20019;-74
2023/08/03 10:17:41;;;;;;;4.70;1.58;;;;;;;-144.73;100.00;54662.22;4977016;28;20042;-74
2023/08/03 10:20:09;;;;;;;3.50;1.50;;;;;;;-144.73;100.00;54662.22;4938751;28;20035;-75
2023/08/03 10:22:35;;;;;;;5.72;2.25;;;;;;;-144.73;100.00;54674.53;4929044;28;20039;-73
2023/08/03 10:25:19;;;;;;;5.00;2.00;;;;;;;-144.73;100.00;54701.22;4955718;28;20026;-73
2023/08/03 10:28:09;;;;;;;8.52;2.55;;;;;;;-144.73;100.00;54690.97;4944618;28;20070;-74
2023/08/03 10:31:00;;;;;;;9.93;2.65;;;;;;;-144.73;100.00;54715.59;4927678;28;20019;-75
2023/08/03 10:33:45;;;;;;;7.05;2.88;;;;;;;-144.73;100.00;54660.16;4932118;28;20104;-73
2023/08/03 10:36:30;;;;;;;10.50;3.25;;;;;;;-144.73;100.00;54695.06;4931657;28;20074;-73
2023/08/03 10:38:58;;;;;;;7.38;3.15;;;;;;;-144.73;100.00;54654.00;5023882;28;20050;-73
2023/08/03 10:41:26;;;;;;;6.80;3.88;;;;;;;-144.73;100.00;54703.28;4939566;28;20066;-73
2023/08/03 10:44:20;;;;;;;8.05;3.83;;;;;;;-144.73;100.00;54670.44;4972365;28;20471;-75
2023/08/03 10:46:53;;;;;;;9.18;3.22;;;;;;;-144.73;100.00;54695.06;4943180;28;20081;-74
2023/08/03 10:49:19;;;;;;;10.43;3.88;;;;;;;-144.73;100.00;54674.53;4944521;28;20039;-73
2023/08/03 10:51:52;;;;;;;8.68;4.47;;;;;;;-144.73;100.00;54682.75;5027411;28;20164;-74
2023/08/03 10:54:19;;;;;;;7.20;4.30;;;;;;;-144.73;100.00;54695.06;4938584;28;20038;-74
2023/08/03 10:57:10;;;;;;;12.02;4.28;;;;;;;-144.73;100.00;54649.91;5028164;28;20045;-73
2023/08/03 10:59:50;;;;;;;13.80;4.05;;;;;;;-144.73;100.00;54686.84;4938465;28;20025;-74
2023/08/03 11:02:32;;;;;;;9.57;4.32;;;;;;;-144.73;100.00;54670.44;4938195;28;20031;-73
2023/08/03 11:04:58;;;;;;;12.02;4.40;;;;;;;-144.73;100.00;54658.13;4936302;28;20177;-75
2023/08/03 11:07:33;;;;;;;8.00;4.40;;;;;;;-144.73;100.00;54602.69;4971617;28;20135;-76